美国国家海洋和大气管理局NOAA提供的免费天气信息

美国国家海洋和大气管理局NOAA的免费天气信息网站
Aviation Weather Center

如果你不太记得关于METAR的各个数据的详细说明,
可以参考一下我写的这篇METAR 航空例行天气报告 格式总结笔记。

只要在这里输入4个字母的机场代码,就可以得到航空例行天气报告METAR 和终端机场天气预报TAF信息,
比如北京首都国际机场,输入ZBAA的结果在这里


支 持 本 站: 捐赠服务器等运维费用,感谢您的支持!

ZBAA 030530Z 08003MPS 040V130 CAVOK 34/04 Q1004 NOSIG
ZBAA 030500Z 10003MPS 060V140 CAVOK 33/03 Q1004 NOSIG
ZBAA 030430Z VRB03MPS CAVOK 33/07 Q1004 NOSIG
ZBAA 030400Z 06003MPS 350V160 CAVOK 32/07 Q1005 NOSIG
ZBAA 030330Z VRB01MPS 8000 NSC 31/12 Q1005 NOSIG
ZBAA 030300Z VRB02MPS 7000 NSC 30/12 Q1005 NOSIG
ZBAA 030230Z 04003MPS 010V080 7000 NSC 29/13 Q1005 NOSIG
ZBAA 030200Z 02003MPS 330V060 5000 HZ NSC 29/13 Q1006 NOSIG
ZBAA 030130Z 01003MPS 320V080 4000 HZ NSC 28/16 Q1006 NOSIG
ZBAA 030100Z 02003MPS 350V070 3500 HZ NSC 26/17 Q1005 NOSIG
ZBAA 030030Z 04003MPS 3200 HZ NSC 25/17 Q1005 NOSIG
ZBAA 030000Z 03003MPS 360V070 3000 HZ NSC 24/17 Q1005 NOSIG
ZBAA 022330Z 03002MPS 350V090 2900 BR NSC 23/18 Q1005 BECMG TL0040 3200
ZBAA 022300Z VRB01MPS 2600 BR NSC 22/18 Q1005 BECMG TL0040 3200
ZBAA 022230Z 02001MPS 2200 R01/1400N R36R/2000N R36L/1600N BR NSC 20/18 Q1004 BECMG TL0020 3200
ZBAA 022200Z 35003MPS 2000 BR NSC 19/17 Q1004 NOSIG
ZBAA 022130Z 36003MPS 2000 BR NSC 18/16 Q1004 NOSIG
ZBAA 022100Z 01002MPS 2200 BR NSC 17/16 Q1003 NOSIG
ZBAA 022030Z 36003MPS 3500 BR NSC 17/15 Q1003 NOSIG
ZBAA 022000Z 36002MPS 4000 BR NSC 17/15 Q1003 NOSIG
ZBAA 021930Z 07001MPS 4000 BR NSC 18/16 Q1003 NOSIG
ZBAA 021900Z VRB01MPS 4000 BR NSC 18/17 Q1003 NOSIG
ZBAA 021830Z 00000MPS 4000 BR NSC 19/17 Q1003 NOSIG
ZBAA 021800Z 00000MPS 3500 BR NSC 19/17 Q1003 NOSIG
ZBAA 021730Z 07001MPS 4000 BR NSC 19/17 Q1003 NOSIG
ZBAA 021700Z 09001MPS 4000 BR NSC 20/17 Q1003 NOSIG
ZBAA 021630Z VRB01MPS 5000 BR NSC 20/16 Q1003 NOSIG
ZBAA 021600Z VRB01MPS 5000 HZ NSC 22/17 Q1003 NOSIG
ZBAA 021530Z VRB01MPS 5000 HZ NSC 22/17 Q1004 NOSIG
ZBAA 021500Z VRB01MPS 5000 HZ NSC 22/17 Q1004 NOSIG
ZBAA 021430Z 10002MPS 050V130 6000 NSC 23/17 Q1003 NOSIG
ZBAA 021400Z 10002MPS 040V160 6000 NSC 23/17 Q1004 NOSIG
ZBAA 021330Z 11003MPS 080V150 6000 NSC 24/17 Q1003 NOSIG
ZBAA 021300Z 11003MPS 6000 NSC 24/17 Q1003 NOSIG
ZBAA 021230Z 11004MPS 6000 NSC 24/17 Q1003 NOSIG
ZBAA 021200Z 12004MPS 090V150 6000 NSC 24/17 Q1002 NOSIG

TAF ZBAA 030340Z 0306/0406 14004MPS 5000 BR NSC TX33/0307Z TN20/22Z

x-plane使用的就是这里的天气信息,另外很多iOS的app也能看,不过在本家直接查的话还是很方便的。

支 持 本 站: 捐赠服务器等运维费用,感谢您的支持!